aviador You're here:

CYMT Decoded Metar

CHIBOUGAMAU CHAP in QC, CANADA
Report Time2018-06-24 22:00:00
UTC Time2018-06-24 22:49:02
Flight Rules vfr VFR
Wind350° at 13 Gusting to 20 kt
W.Decomp.*RWY 04: 10.8 kt HW 7.3 kt LCW
W.Rank350° ranks 24
Current wind is above 350° avg. (6.5)
Visibility9999 m
Phenomena:N/A
Clouds:Few 070 Hf
Expected CloudBase > 6,800 ft AGL from Temp-Dew spread
CeilingNone
Temp17°C (ISA +5)
Dew Point00°C (32% RH)
AAT10.4°C
QNH1015 hPa
Density Alt1,821 ft
Elevation1,270 ft
Report Wrong Elevation
Raw Report
CYMT 242200Z AUTO 35013G20KT 9SM FEW070 17/M00 A2997 RMK SLP158
DENSITY ALT 1600FT=

Extra information for CYMT:More info

Metar Taf Metar & Taf Last 4 Metars F.Rules Stats Wind Profile Meteogram Temp Stats Airport Information Weather charts Add Link Nearby VenuesMetar ALERT Operation Metar Decoded Social comments